sensor_id;sensor_type;location;lat;lon;timestamp;P1;durP1;ratioP1;P2;durP2;ratioP2
27666;SDS011;15074;50.940;5.282;2023-09-30T00:01:11;13.32;;;9.95;;
27666;SDS011;15074;50.940;5.282;2023-09-30T00:03:37;11.10;;;9.88;;
27666;SDS011;15074;50.940;5.282;2023-09-30T00:06:02;9.10;;;8.20;;
27666;SDS011;15074;50.940;5.282;2023-09-30T00:08:29;10.00;;;9.05;;
27666;SDS011;15074;50.940;5.282;2023-09-30T00:10:54;9.73;;;8.80;;
27666;SDS011;15074;50.940;5.282;2023-09-30T00:13:20;11.05;;;9.20;;
27666;SDS011;15074;50.940;5.282;2023-09-30T00:15:46;9.88;;;8.82;;
27666;SDS011;15074;50.940;5.282;2023-09-30T00:18:12;11.85;;;8.45;;
27666;SDS011;15074;50.940;5.282;2023-09-30T00:20:38;11.43;;;8.52;;
27666;SDS011;15074;50.940;5.282;2023-09-30T00:23:04;12.63;;;9.13;;
27666;SDS011;15074;50.940;5.282;2023-09-30T00:25:31;11.30;;;8.13;;
27666;SDS011;15074;50.940;5.282;2023-09-30T00:27:57;9.95;;;8.95;;
27666;SDS011;15074;50.940;5.282;2023-09-30T00:30:23;9.73;;;8.38;;
27666;SDS011;15074;50.940;5.282;2023-09-30T00:32:49;10.20;;;9.07;;
27666;SDS011;15074;50.940;5.282;2023-09-30T00:35:14;12.23;;;8.95;;
27666;SDS011;15074;50.940;5.282;2023-09-30T00:37:41;9.45;;;8.60;;
27666;SDS011;15074;50.940;5.282;2023-09-30T00:40:07;12.05;;;8.75;;
27666;SDS011;15074;50.940;5.282;2023-09-30T00:42:40;10.55;;;9.25;;
27666;SDS011;15074;50.940;5.282;2023-09-30T00:45:06;11.02;;;9.68;;
27666;SDS011;15074;50.940;5.282;2023-09-30T00:47:35;11.27;;;9.25;;
27666;SDS011;15074;50.940;5.282;2023-09-30T00:50:02;9.90;;;8.55;;
27666;SDS011;15074;50.940;5.282;2023-09-30T00:52:29;12.77;;;9.17;;
27666;SDS011;15074;50.940;5.282;2023-09-30T00:54:56;10.07;;;9.10;;
27666;SDS011;15074;50.940;5.282;2023-09-30T00:57:23;13.43;;;9.68;;
27666;SDS011;15074;50.940;5.282;2023-09-30T00:59:50;11.52;;;9.02;;
27666;SDS011;15074;50.940;5.282;2023-09-30T01:02:19;11.27;;;8.55;;
27666;SDS011;15074;50.940;5.282;2023-09-30T01:04:47;13.32;;;8.98;;
27666;SDS011;15074;50.940;5.282;2023-09-30T01:07:13;9.63;;;8.63;;
27666;SDS011;15074;50.940;5.282;2023-09-30T01:09:39;15.93;;;9.85;;
27666;SDS011;15074;50.940;5.282;2023-09-30T01:12:05;17.95;;;10.10;;
27666;SDS011;15074;50.940;5.282;2023-09-30T01:14:32;13.00;;;10.35;;
27666;SDS011;15074;50.940;5.282;2023-09-30T01:17:05;10.90;;;9.80;;
27666;SDS011;15074;50.940;5.282;2023-09-30T01:19:34;9.02;;;7.85;;
27666;SDS011;15074;50.940;5.282;2023-09-30T01:22:00;9.98;;;7.75;;
27666;SDS011;15074;50.940;5.282;2023-09-30T01:24:30;9.25;;;6.55;;
27666;SDS011;15074;50.940;5.282;2023-09-30T01:27:03;10.48;;;6.07;;
27666;SDS011;15074;50.940;5.282;2023-09-30T01:29:28;7.05;;;6.35;;
27666;SDS011;15074;50.940;5.282;2023-09-30T01:31:55;6.38;;;5.57;;
27666;SDS011;15074;50.940;5.282;2023-09-30T01:34:20;9.00;;;5.82;;
27666;SDS011;15074;50.940;5.282;2023-09-30T01:36:46;8.93;;;6.80;;
27666;SDS011;15074;50.940;5.282;2023-09-30T01:39:12;7.72;;;6.20;;
27666;SDS011;15074;50.940;5.282;2023-09-30T01:41:38;8.55;;;6.88;;
27666;SDS011;15074;50.940;5.282;2023-09-30T01:44:05;9.85;;;7.22;;
27666;SDS011;15074;50.940;5.282;2023-09-30T01:46:31;7.70;;;6.80;;
27666;SDS011;15074;50.940;5.282;2023-09-30T01:48:57;8.30;;;7.00;;
27666;SDS011;15074;50.940;5.282;2023-09-30T01:51:22;11.30;;;8.23;;
27666;SDS011;15074;50.940;5.282;2023-09-30T01:53:48;11.95;;;8.18;;
27666;SDS011;15074;50.940;5.282;2023-09-30T01:56:14;11.60;;;7.43;;
27666;SDS011;15074;50.940;5.282;2023-09-30T01:58:40;10.07;;;8.07;;
27666;SDS011;15074;50.940;5.282;2023-09-30T02:01:05;8.23;;;7.38;;
27666;SDS011;15074;50.940;5.282;2023-09-30T02:03:31;9.55;;;7.60;;
27666;SDS011;15074;50.940;5.282;2023-09-30T02:05:57;12.40;;;8.70;;
27666;SDS011;15074;50.940;5.282;2023-09-30T02:08:23;10.15;;;7.18;;
27666;SDS011;15074;50.940;5.282;2023-09-30T02:10:49;7.90;;;7.10;;
27666;SDS011;15074;50.940;5.282;2023-09-30T02:13:16;15.38;;;7.18;;
27666;SDS011;15074;50.940;5.282;2023-09-30T02:15:42;9.35;;;7.50;;
27666;SDS011;15074;50.940;5.282;2023-09-30T02:18:08;9.95;;;6.68;;
27666;SDS011;15074;50.940;5.282;2023-09-30T02:20:34;9.88;;;6.88;;
27666;SDS011;15074;50.940;5.282;2023-09-30T02:23:04;9.13;;;7.22;;
27666;SDS011;15074;50.940;5.282;2023-09-30T02:25:35;8.63;;;7.72;;
27666;SDS011;15074;50.940;5.282;2023-09-30T02:28:04;12.88;;;7.78;;
27666;SDS011;15074;50.940;5.282;2023-09-30T02:30:32;9.18;;;7.45;;
27666;SDS011;15074;50.940;5.282;2023-09-30T02:32:58;10.55;;;7.18;;
27666;SDS011;15074;50.940;5.282;2023-09-30T02:35:24;13.07;;;7.40;;
27666;SDS011;15074;50.940;5.282;2023-09-30T02:37:51;14.50;;;7.35;;
27666;SDS011;15074;50.940;5.282;2023-09-30T02:40:17;9.63;;;7.65;;
27666;SDS011;15074;50.940;5.282;2023-09-30T02:42:43;7.28;;;6.57;;
27666;SDS011;15074;50.940;5.282;2023-09-30T02:45:10;7.40;;;6.35;;
27666;SDS011;15074;50.940;5.282;2023-09-30T02:47:36;7.53;;;6.47;;
27666;SDS011;15074;50.940;5.282;2023-09-30T02:50:05;14.52;;;6.65;;
27666;SDS011;15074;50.940;5.282;2023-09-30T02:52:33;7.22;;;6.18;;
27666;SDS011;15074;50.940;5.282;2023-09-30T02:54:59;11.30;;;6.72;;
27666;SDS011;15074;50.940;5.282;2023-09-30T02:57:25;9.63;;;7.90;;
27666;SDS011;15074;50.940;5.282;2023-09-30T02:59:52;9.32;;;8.38;;
27666;SDS011;15074;50.940;5.282;2023-09-30T03:02:19;9.20;;;7.57;;
27666;SDS011;15074;50.940;5.282;2023-09-30T03:04:46;9.10;;;8.20;;
27666;SDS011;15074;50.940;5.282;2023-09-30T03:07:12;10.82;;;7.80;;
27666;SDS011;15074;50.940;5.282;2023-09-30T03:09:38;13.25;;;9.65;;
27666;SDS011;15074;50.940;5.282;2023-09-30T03:12:04;11.68;;;9.18;;
27666;SDS011;15074;50.940;5.282;2023-09-30T03:14:30;11.50;;;9.95;;
27666;SDS011;15074;50.940;5.282;2023-09-30T03:16:57;16.33;;;11.43;;
27666;SDS011;15074;50.940;5.282;2023-09-30T03:19:23;16.85;;;8.88;;
27666;SDS011;15074;50.940;5.282;2023-09-30T03:21:49;17.77;;;8.88;;
27666;SDS011;15074;50.940;5.282;2023-09-30T03:24:15;11.10;;;8.85;;
27666;SDS011;15074;50.940;5.282;2023-09-30T03:26:41;16.10;;;9.63;;
27666;SDS011;15074;50.940;5.282;2023-09-30T03:29:07;12.07;;;10.30;;
27666;SDS011;15074;50.940;5.282;2023-09-30T03:31:36;12.13;;;10.20;;
27666;SDS011;15074;50.940;5.282;2023-09-30T03:34:02;20.35;;;12.15;;
27666;SDS011;15074;50.940;5.282;2023-09-30T03:36:29;13.98;;;10.65;;
27666;SDS011;15074;50.940;5.282;2023-09-30T03:38:55;12.48;;;10.68;;
27666;SDS011;15074;50.940;5.282;2023-09-30T03:41:24;16.58;;;11.52;;
27666;SDS011;15074;50.940;5.282;2023-09-30T03:43:49;14.90;;;11.48;;
27666;SDS011;15074;50.940;5.282;2023-09-30T03:46:16;18.77;;;11.63;;
27666;SDS011;15074;50.940;5.282;2023-09-30T03:48:42;15.32;;;12.50;;
27666;SDS011;15074;50.940;5.282;2023-09-30T03:51:12;17.83;;;13.68;;
27666;SDS011;15074;50.940;5.282;2023-09-30T03:56:07;13.10;;;9.90;;
27666;SDS011;15074;50.940;5.282;2023-09-30T03:58:32;13.88;;;9.35;;
27666;SDS011;15074;50.940;5.282;2023-09-30T04:00:59;26.38;;;10.93;;
27666;SDS011;15074;50.940;5.282;2023-09-30T04:03:29;15.15;;;10.25;;
27666;SDS011;15074;50.940;5.282;2023-09-30T04:05:57;16.90;;;11.77;;
27666;SDS011;15074;50.940;5.282;2023-09-30T04:08:23;23.65;;;12.98;;
27666;SDS011;15074;50.940;5.282;2023-09-30T04:10:49;13.65;;;11.27;;
27666;SDS011;15074;50.940;5.282;2023-09-30T04:13:14;20.27;;;12.27;;
27666;SDS011;15074;50.940;5.282;2023-09-30T04:15:40;21.88;;;14.10;;
27666;SDS011;15074;50.940;5.282;2023-09-30T04:18:06;16.17;;;13.68;;
27666;SDS011;15074;50.940;5.282;2023-09-30T04:20:31;17.77;;;12.65;;
27666;SDS011;15074;50.940;5.282;2023-09-30T04:22:57;17.05;;;12.05;;
27666;SDS011;15074;50.940;5.282;2023-09-30T04:25:23;20.10;;;13.55;;
27666;SDS011;15074;50.940;5.282;2023-09-30T04:27:52;20.98;;;13.90;;
27666;SDS011;15074;50.940;5.282;2023-09-30T04:30:18;23.27;;;15.27;;
27666;SDS011;15074;50.940;5.282;2023-09-30T04:32:44;21.27;;;15.50;;
27666;SDS011;15074;50.940;5.282;2023-09-30T04:35:10;24.58;;;14.45;;
27666;SDS011;15074;50.940;5.282;2023-09-30T04:37:37;22.33;;;16.25;;
27666;SDS011;15074;50.940;5.282;2023-09-30T04:40:06;32.75;;;14.70;;
27666;SDS011;15074;50.940;5.282;2023-09-30T04:42:45;18.20;;;14.68;;
27666;SDS011;15074;50.940;5.282;2023-09-30T04:45:14;18.73;;;12.85;;
27666;SDS011;15074;50.940;5.282;2023-09-30T04:47:41;13.20;;;11.82;;
27666;SDS011;15074;50.940;5.282;2023-09-30T04:50:09;16.55;;;10.73;;
27666;SDS011;15074;50.940;5.282;2023-09-30T04:52:36;13.93;;;12.00;;
27666;SDS011;15074;50.940;5.282;2023-09-30T04:55:03;16.87;;;10.83;;
27666;SDS011;15074;50.940;5.282;2023-09-30T04:57:29;16.15;;;11.20;;
27666;SDS011;15074;50.940;5.282;2023-09-30T04:59:56;19.90;;;12.45;;
27666;SDS011;15074;50.940;5.282;2023-09-30T05:02:23;25.55;;;12.82;;
27666;SDS011;15074;50.940;5.282;2023-09-30T05:04:50;26.95;;;14.57;;
27666;SDS011;15074;50.940;5.282;2023-09-30T05:07:17;18.30;;;13.25;;
27666;SDS011;15074;50.940;5.282;2023-09-30T05:09:43;22.17;;;10.80;;
27666;SDS011;15074;50.940;5.282;2023-09-30T05:12:09;15.18;;;11.73;;
27666;SDS011;15074;50.940;5.282;2023-09-30T05:14:36;17.80;;;11.30;;
27666;SDS011;15074;50.940;5.282;2023-09-30T05:17:03;13.05;;;11.43;;
27666;SDS011;15074;50.940;5.282;2023-09-30T05:19:30;12.68;;;11.38;;
27666;SDS011;15074;50.940;5.282;2023-09-30T05:21:58;19.42;;;12.90;;
27666;SDS011;15074;50.940;5.282;2023-09-30T05:24:26;21.05;;;13.40;;
27666;SDS011;15074;50.940;5.282;2023-09-30T05:26:52;17.25;;;11.38;;
27666;SDS011;15074;50.940;5.282;2023-09-30T05:29:18;15.82;;;12.70;;
27666;SDS011;15074;50.940;5.282;2023-09-30T05:31:45;19.02;;;12.40;;
27666;SDS011;15074;50.940;5.282;2023-09-30T05:34:11;12.45;;;10.35;;
27666;SDS011;15074;50.940;5.282;2023-09-30T05:36:36;10.73;;;9.63;;
27666;SDS011;15074;50.940;5.282;2023-09-30T05:39:03;15.32;;;12.57;;
27666;SDS011;15074;50.940;5.282;2023-09-30T05:41:30;17.85;;;12.23;;
27666;SDS011;15074;50.940;5.282;2023-09-30T05:43:58;16.98;;;12.02;;
27666;SDS011;15074;50.940;5.282;2023-09-30T05:46:24;16.48;;;13.30;;
27666;SDS011;15074;50.940;5.282;2023-09-30T05:48:52;15.68;;;12.70;;
27666;SDS011;15074;50.940;5.282;2023-09-30T05:51:18;12.65;;;11.35;;
27666;SDS011;15074;50.940;5.282;2023-09-30T05:53:43;16.17;;;12.23;;
27666;SDS011;15074;50.940;5.282;2023-09-30T05:56:10;14.68;;;12.52;;
27666;SDS011;15074;50.940;5.282;2023-09-30T05:58:36;14.43;;;12.35;;
27666;SDS011;15074;50.940;5.282;2023-09-30T06:01:07;15.30;;;13.68;;
27666;SDS011;15074;50.940;5.282;2023-09-30T06:03:36;14.43;;;10.85;;
27666;SDS011;15074;50.940;5.282;2023-09-30T06:06:14;16.55;;;12.00;;
27666;SDS011;15074;50.940;5.282;2023-09-30T06:08:41;13.05;;;11.05;;
27666;SDS011;15074;50.940;5.282;2023-09-30T06:11:16;11.02;;;9.23;;
27666;SDS011;15074;50.940;5.282;2023-09-30T06:13:42;15.20;;;9.60;;
27666;SDS011;15074;50.940;5.282;2023-09-30T06:16:08;15.32;;;9.30;;
27666;SDS011;15074;50.940;5.282;2023-09-30T06:18:36;14.75;;;9.30;;
27666;SDS011;15074;50.940;5.282;2023-09-30T06:21:01;12.85;;;9.25;;
27666;SDS011;15074;50.940;5.282;2023-09-30T06:23:29;13.80;;;8.60;;
27666;SDS011;15074;50.940;5.282;2023-09-30T06:25:55;9.45;;;8.50;;
27666;SDS011;15074;50.940;5.282;2023-09-30T06:28:21;16.58;;;11.23;;
27666;SDS011;15074;50.940;5.282;2023-09-30T06:30:51;12.75;;;11.43;;
27666;SDS011;15074;50.940;5.282;2023-09-30T06:33:17;11.40;;;10.20;;
27666;SDS011;15074;50.940;5.282;2023-09-30T06:35:42;12.90;;;11.25;;
27666;SDS011;15074;50.940;5.282;2023-09-30T06:38:16;11.50;;;10.30;;
27666;SDS011;15074;50.940;5.282;2023-09-30T06:40:43;14.18;;;9.68;;
27666;SDS011;15074;50.940;5.282;2023-09-30T06:43:10;15.63;;;10.20;;
27666;SDS011;15074;50.940;5.282;2023-09-30T06:45:36;11.35;;;10.15;;
27666;SDS011;15074;50.940;5.282;2023-09-30T06:48:06;13.65;;;10.98;;
27666;SDS011;15074;50.940;5.282;2023-09-30T06:50:37;10.50;;;9.43;;
27666;SDS011;15074;50.940;5.282;2023-09-30T06:53:14;11.80;;;10.60;;
27666;SDS011;15074;50.940;5.282;2023-09-30T06:55:40;11.60;;;9.93;;
27666;SDS011;15074;50.940;5.282;2023-09-30T06:58:08;12.60;;;10.80;;
27666;SDS011;15074;50.940;5.282;2023-09-30T07:00:35;13.18;;;10.23;;
27666;SDS011;15074;50.940;5.282;2023-09-30T07:03:05;11.85;;;10.75;;
27666;SDS011;15074;50.940;5.282;2023-09-30T07:05:31;11.93;;;10.57;;
27666;SDS011;15074;50.940;5.282;2023-09-30T07:07:57;14.90;;;10.45;;
27666;SDS011;15074;50.940;5.282;2023-09-30T07:10:22;11.35;;;9.50;;
27666;SDS011;15074;50.940;5.282;2023-09-30T07:12:48;11.20;;;9.52;;
27666;SDS011;15074;50.940;5.282;2023-09-30T07:15:20;14.25;;;10.00;;
27666;SDS011;15074;50.940;5.282;2023-09-30T07:17:45;11.20;;;10.10;;
27666;SDS011;15074;50.940;5.282;2023-09-30T07:20:12;12.88;;;10.00;;
27666;SDS011;15074;50.940;5.282;2023-09-30T07:22:38;11.95;;;10.85;;
27666;SDS011;15074;50.940;5.282;2023-09-30T07:25:04;12.88;;;11.23;;
27666;SDS011;15074;50.940;5.282;2023-09-30T07:27:29;11.82;;;10.57;;
27666;SDS011;15074;50.940;5.282;2023-09-30T07:29:55;13.52;;;11.98;;
27666;SDS011;15074;50.940;5.282;2023-09-30T07:32:21;13.02;;;11.70;;
27666;SDS011;15074;50.940;5.282;2023-09-30T07:34:50;13.45;;;12.25;;
27666;SDS011;15074;50.940;5.282;2023-09-30T07:37:16;13.55;;;12.15;;
27666;SDS011;15074;50.940;5.282;2023-09-30T07:39:43;13.10;;;11.73;;
27666;SDS011;15074;50.940;5.282;2023-09-30T07:42:10;13.80;;;12.40;;
27666;SDS011;15074;50.940;5.282;2023-09-30T07:44:36;14.70;;;13.40;;
27666;SDS011;15074;50.940;5.282;2023-09-30T07:47:04;15.10;;;13.52;;
27666;SDS011;15074;50.940;5.282;2023-09-30T07:49:33;17.20;;;14.38;;
27666;SDS011;15074;50.940;5.282;2023-09-30T07:51:59;18.00;;;16.10;;
27666;SDS011;15074;50.940;5.282;2023-09-30T07:54:25;19.75;;;16.35;;
27666;SDS011;15074;50.940;5.282;2023-09-30T07:56:51;24.70;;;18.50;;
27666;SDS011;15074;50.940;5.282;2023-09-30T07:59:17;30.83;;;18.23;;
27666;SDS011;15074;50.940;5.282;2023-09-30T08:01:43;30.58;;;18.42;;
27666;SDS011;15074;50.940;5.282;2023-09-30T08:04:08;33.05;;;19.50;;
27666;SDS011;15074;50.940;5.282;2023-09-30T08:06:34;44.53;;;20.60;;
27666;SDS011;15074;50.940;5.282;2023-09-30T08:09:00;51.42;;;20.85;;
27666;SDS011;15074;50.940;5.282;2023-09-30T08:11:25;38.33;;;20.35;;
27666;SDS011;15074;50.940;5.282;2023-09-30T08:13:56;54.65;;;21.42;;
27666;SDS011;15074;50.940;5.282;2023-09-30T08:16:23;50.55;;;20.90;;
27666;SDS011;15074;50.940;5.282;2023-09-30T08:18:49;47.30;;;21.38;;
27666;SDS011;15074;50.940;5.282;2023-09-30T08:21:15;43.90;;;18.90;;
27666;SDS011;15074;50.940;5.282;2023-09-30T08:23:41;62.70;;;20.83;;
27666;SDS011;15074;50.940;5.282;2023-09-30T08:26:07;38.90;;;19.83;;
27666;SDS011;15074;50.940;5.282;2023-09-30T08:28:33;70.20;;;19.38;;
27666;SDS011;15074;50.940;5.282;2023-09-30T08:31:03;60.20;;;19.33;;
27666;SDS011;15074;50.940;5.282;2023-09-30T08:33:31;64.80;;;19.35;;
27666;SDS011;15074;50.940;5.282;2023-09-30T08:36:03;51.35;;;19.80;;
27666;SDS011;15074;50.940;5.282;2023-09-30T08:38:36;39.22;;;17.70;;
27666;SDS011;15074;50.940;5.282;2023-09-30T08:41:03;50.05;;;18.20;;
27666;SDS011;15074;50.940;5.282;2023-09-30T08:43:29;69.32;;;19.25;;
27666;SDS011;15074;50.940;5.282;2023-09-30T08:46:01;34.42;;;18.42;;
27666;SDS011;15074;50.940;5.282;2023-09-30T08:48:29;41.22;;;18.27;;
27666;SDS011;15074;50.940;5.282;2023-09-30T08:50:58;43.42;;;18.83;;
27666;SDS011;15074;50.940;5.282;2023-09-30T08:53:25;51.35;;;17.17;;
27666;SDS011;15074;50.940;5.282;2023-09-30T08:55:54;35.88;;;18.08;;
27666;SDS011;15074;50.940;5.282;2023-09-30T08:58:23;27.35;;;17.20;;
27666;SDS011;15074;50.940;5.282;2023-09-30T09:00:51;27.00;;;18.60;;
27666;SDS011;15074;50.940;5.282;2023-09-30T09:03:18;25.92;;;19.08;;
27666;SDS011;15074;50.940;5.282;2023-09-30T09:05:44;26.00;;;18.52;;
27666;SDS011;15074;50.940;5.282;2023-09-30T09:08:10;26.73;;;18.45;;
27666;SDS011;15074;50.940;5.282;2023-09-30T09:10:44;21.95;;;16.67;;
27666;SDS011;15074;50.940;5.282;2023-09-30T09:13:22;21.92;;;17.33;;
27666;SDS011;15074;50.940;5.282;2023-09-30T09:15:48;20.08;;;16.20;;
27666;SDS011;15074;50.940;5.282;2023-09-30T09:18:35;19.67;;;16.40;;
27666;SDS011;15074;50.940;5.282;2023-09-30T09:23:43;20.15;;;16.98;;
27666;SDS011;15074;50.940;5.282;2023-09-30T09:26:22;17.45;;;15.73;;
27666;SDS011;15074;50.940;5.282;2023-09-30T09:28:49;16.35;;;14.43;;
27666;SDS011;15074;50.940;5.282;2023-09-30T09:31:28;16.85;;;15.18;;
27666;SDS011;15074;50.940;5.282;2023-09-30T09:33:54;15.93;;;14.35;;
27666;SDS011;15074;50.940;5.282;2023-09-30T09:36:20;16.60;;;14.15;;
27666;SDS011;15074;50.940;5.282;2023-09-30T09:38:47;16.83;;;13.82;;
27666;SDS011;15074;50.940;5.282;2023-09-30T09:41:15;14.52;;;12.95;;
27666;SDS011;15074;50.940;5.282;2023-09-30T09:43:41;15.05;;;13.50;;
27666;SDS011;15074;50.940;5.282;2023-09-30T09:46:07;13.68;;;12.30;;
27666;SDS011;15074;50.940;5.282;2023-09-30T09:48:36;17.58;;;13.18;;
27666;SDS011;15074;50.940;5.282;2023-09-30T09:51:03;13.40;;;12.15;;
27666;SDS011;15074;50.940;5.282;2023-09-30T09:53:36;13.32;;;11.90;;
27666;SDS011;15074;50.940;5.282;2023-09-30T09:56:04;12.07;;;11.18;;
27666;SDS011;15074;50.940;5.282;2023-09-30T09:58:35;12.65;;;11.45;;
27666;SDS011;15074;50.940;5.282;2023-09-30T10:01:03;13.18;;;11.18;;
27666;SDS011;15074;50.940;5.282;2023-09-30T10:03:31;12.75;;;11.75;;
27666;SDS011;15074;50.940;5.282;2023-09-30T10:05:58;13.02;;;11.82;;
27666;SDS011;15074;50.940;5.282;2023-09-30T10:08:32;12.52;;;11.43;;
27666;SDS011;15074;50.940;5.282;2023-09-30T10:11:01;13.18;;;11.98;;
27666;SDS011;15074;50.940;5.282;2023-09-30T10:21:36;10.30;;;9.32;;
27666;SDS011;15074;50.940;5.282;2023-09-30T10:37:44;9.13;;;8.23;;
27666;SDS011;15074;50.940;5.282;2023-09-30T10:40:25;8.90;;;8.15;;
27666;SDS011;15074;50.940;5.282;2023-09-30T10:42:52;9.80;;;8.98;;
27666;SDS011;15074;50.940;5.282;2023-09-30T10:50:53;8.95;;;7.93;;
27666;SDS011;15074;50.940;5.282;2023-09-30T10:53:27;8.57;;;7.75;;
27666;SDS011;15074;50.940;5.282;2023-09-30T10:55:54;9.45;;;8.05;;
27666;SDS011;15074;50.940;5.282;2023-09-30T10:58:20;8.77;;;8.07;;
27666;SDS011;15074;50.940;5.282;2023-09-30T11:00:55;9.27;;;8.38;;
27666;SDS011;15074;50.940;5.282;2023-09-30T11:03:22;8.32;;;7.63;;
27666;SDS011;15074;50.940;5.282;2023-09-30T11:05:48;9.25;;;8.45;;
27666;SDS011;15074;50.940;5.282;2023-09-30T11:08:16;9.50;;;8.70;;
27666;SDS011;15074;50.940;5.282;2023-09-30T11:10:51;9.25;;;8.35;;
27666;SDS011;15074;50.940;5.282;2023-09-30T11:13:18;8.55;;;7.85;;
27666;SDS011;15074;50.940;5.282;2023-09-30T11:15:44;9.10;;;8.23;;
27666;SDS011;15074;50.940;5.282;2023-09-30T11:18:13;8.40;;;7.70;;
27666;SDS011;15074;50.940;5.282;2023-09-30T11:20:40;8.77;;;7.97;;
27666;SDS011;15074;50.940;5.282;2023-09-30T11:23:06;8.75;;;7.95;;
27666;SDS011;15074;50.940;5.282;2023-09-30T11:25:36;7.45;;;6.75;;
27666;SDS011;15074;50.940;5.282;2023-09-30T11:28:15;8.15;;;7.32;;
27666;SDS011;15074;50.940;5.282;2023-09-30T11:30:54;8.75;;;7.90;;
27666;SDS011;15074;50.940;5.282;2023-09-30T11:33:20;8.23;;;7.55;;
27666;SDS011;15074;50.940;5.282;2023-09-30T11:38:23;6.85;;;6.15;;
27666;SDS011;15074;50.940;5.282;2023-09-30T11:41:03;7.72;;;6.93;;
27666;SDS011;15074;50.940;5.282;2023-09-30T11:43:31;6.70;;;6.13;;
27666;SDS011;15074;50.940;5.282;2023-09-30T11:46:06;6.68;;;6.03;;
27666;SDS011;15074;50.940;5.282;2023-09-30T11:48:58;6.83;;;6.23;;
27666;SDS011;15074;50.940;5.282;2023-09-30T11:51:25;7.25;;;6.05;;
27666;SDS011;15074;50.940;5.282;2023-09-30T11:53:52;7.50;;;6.77;;
27666;SDS011;15074;50.940;5.282;2023-09-30T11:56:18;6.83;;;6.23;;
27666;SDS011;15074;50.940;5.282;2023-09-30T11:58:44;5.55;;;5.03;;
27666;SDS011;15074;50.940;5.282;2023-09-30T12:01:11;6.18;;;5.68;;
27666;SDS011;15074;50.940;5.282;2023-09-30T12:03:39;6.10;;;5.50;;
27666;SDS011;15074;50.940;5.282;2023-09-30T12:06:05;5.72;;;5.22;;
27666;SDS011;15074;50.940;5.282;2023-09-30T12:08:31;5.85;;;5.35;;
27666;SDS011;15074;50.940;5.282;2023-09-30T12:10:57;6.70;;;5.70;;
27666;SDS011;15074;50.940;5.282;2023-09-30T12:13:24;6.53;;;5.93;;
27666;SDS011;15074;50.940;5.282;2023-09-30T12:15:51;5.80;;;5.30;;
27666;SDS011;15074;50.940;5.282;2023-09-30T12:18:18;5.60;;;5.05;;
27666;SDS011;15074;50.940;5.282;2023-09-30T12:20:48;6.20;;;5.25;;
27666;SDS011;15074;50.940;5.282;2023-09-30T12:23:15;5.90;;;4.72;;
27666;SDS011;15074;50.940;5.282;2023-09-30T12:25:43;5.18;;;4.50;;
27666;SDS011;15074;50.940;5.282;2023-09-30T12:28:09;4.97;;;3.65;;
27666;SDS011;15074;50.940;5.282;2023-09-30T12:30:34;4.32;;;3.40;;
27666;SDS011;15074;50.940;5.282;2023-09-30T12:33:00;4.50;;;3.63;;
27666;SDS011;15074;50.940;5.282;2023-09-30T12:35:26;4.97;;;3.55;;
27666;SDS011;15074;50.940;5.282;2023-09-30T12:37:52;3.78;;;3.28;;
27666;SDS011;15074;50.940;5.282;2023-09-30T12:40:18;7.72;;;4.28;;
27666;SDS011;15074;50.940;5.282;2023-09-30T12:42:44;4.35;;;3.92;;
27666;SDS011;15074;50.940;5.282;2023-09-30T12:45:10;4.78;;;3.80;;
27666;SDS011;15074;50.940;5.282;2023-09-30T12:50:03;5.10;;;3.83;;
27666;SDS011;15074;50.940;5.282;2023-09-30T12:52:29;4.95;;;4.18;;
27666;SDS011;15074;50.940;5.282;2023-09-30T12:54:58;5.78;;;4.18;;
27666;SDS011;15074;50.940;5.282;2023-09-30T12:57:23;4.35;;;3.83;;
27666;SDS011;15074;50.940;5.282;2023-09-30T12:59:49;5.25;;;3.65;;
27666;SDS011;15074;50.940;5.282;2023-09-30T13:02:15;4.30;;;3.30;;
27666;SDS011;15074;50.940;5.282;2023-09-30T13:04:43;4.93;;;3.40;;
27666;SDS011;15074;50.940;5.282;2023-09-30T13:07:09;4.05;;;3.08;;
27666;SDS011;15074;50.940;5.282;2023-09-30T13:09:39;3.60;;;2.97;;
27666;SDS011;15074;50.940;5.282;2023-09-30T13:12:05;4.15;;;2.83;;
27666;SDS011;15074;50.940;5.282;2023-09-30T13:14:32;7.07;;;3.42;;
27666;SDS011;15074;50.940;5.282;2023-09-30T13:16:58;4.18;;;3.15;;
27666;SDS011;15074;50.940;5.282;2023-09-30T13:19:24;3.63;;;3.00;;
27666;SDS011;15074;50.940;5.282;2023-09-30T13:21:50;3.70;;;3.05;;
27666;SDS011;15074;50.940;5.282;2023-09-30T13:26:47;4.10;;;2.63;;
27666;SDS011;15074;50.940;5.282;2023-09-30T13:29:13;5.70;;;2.90;;
27666;SDS011;15074;50.940;5.282;2023-09-30T13:34:07;4.13;;;3.40;;
27666;SDS011;15074;50.940;5.282;2023-09-30T13:36:33;4.15;;;3.28;;
27666;SDS011;15074;50.940;5.282;2023-09-30T13:38:59;4.82;;;3.55;;
27666;SDS011;15074;50.940;5.282;2023-09-30T13:41:26;4.85;;;3.28;;
27666;SDS011;15074;50.940;5.282;2023-09-30T13:43:52;4.72;;;4.15;;
27666;SDS011;15074;50.940;5.282;2023-09-30T13:46:18;3.75;;;3.20;;
27666;SDS011;15074;50.940;5.282;2023-09-30T13:48:43;4.05;;;3.47;;
27666;SDS011;15074;50.940;5.282;2023-09-30T13:51:09;4.30;;;3.85;;
27666;SDS011;15074;50.940;5.282;2023-09-30T13:53:38;4.63;;;3.00;;
27666;SDS011;15074;50.940;5.282;2023-09-30T13:56:03;3.55;;;2.90;;
27666;SDS011;15074;50.940;5.282;2023-09-30T13:58:31;4.80;;;3.03;;
27666;SDS011;15074;50.940;5.282;2023-09-30T14:00:57;5.85;;;2.90;;
27666;SDS011;15074;50.940;5.282;2023-09-30T14:03:23;4.18;;;3.22;;
27666;SDS011;15074;50.940;5.282;2023-09-30T14:05:51;4.13;;;2.78;;
27666;SDS011;15074;50.940;5.282;2023-09-30T14:08:18;3.92;;;3.20;;
27666;SDS011;15074;50.940;5.282;2023-09-30T14:10:44;4.82;;;3.17;;
27666;SDS011;15074;50.940;5.282;2023-09-30T14:13:09;7.15;;;3.33;;
27666;SDS011;15074;50.940;5.282;2023-09-30T14:15:36;3.95;;;2.90;;
27666;SDS011;15074;50.940;5.282;2023-09-30T14:18:02;4.45;;;3.50;;
27666;SDS011;15074;50.940;5.282;2023-09-30T14:20:28;4.68;;;3.47;;
27666;SDS011;15074;50.940;5.282;2023-09-30T14:22:54;4.90;;;3.30;;
27666;SDS011;15074;50.940;5.282;2023-09-30T14:25:22;3.42;;;2.97;;
27666;SDS011;15074;50.940;5.282;2023-09-30T14:27:48;4.50;;;3.25;;
27666;SDS011;15074;50.940;5.282;2023-09-30T14:30:14;4.53;;;3.15;;
27666;SDS011;15074;50.940;5.282;2023-09-30T14:32:40;3.95;;;3.17;;
27666;SDS011;15074;50.940;5.282;2023-09-30T14:35:07;4.57;;;2.80;;
27666;SDS011;15074;50.940;5.282;2023-09-30T14:37:34;4.10;;;2.92;;
27666;SDS011;15074;50.940;5.282;2023-09-30T14:40:00;5.43;;;3.20;;
27666;SDS011;15074;50.940;5.282;2023-09-30T14:42:30;5.65;;;2.70;;
27666;SDS011;15074;50.940;5.282;2023-09-30T14:44:56;5.30;;;3.70;;
27666;SDS011;15074;50.940;5.282;2023-09-30T14:47:22;4.45;;;2.72;;
27666;SDS011;15074;50.940;5.282;2023-09-30T14:49:48;5.35;;;3.00;;
27666;SDS011;15074;50.940;5.282;2023-09-30T14:52:14;4.30;;;3.38;;
27666;SDS011;15074;50.940;5.282;2023-09-30T14:54:40;4.22;;;3.30;;
27666;SDS011;15074;50.940;5.282;2023-09-30T14:57:06;3.88;;;3.20;;
27666;SDS011;15074;50.940;5.282;2023-09-30T14:59:33;6.43;;;3.13;;
27666;SDS011;15074;50.940;5.282;2023-09-30T15:01:59;5.05;;;3.55;;
27666;SDS011;15074;50.940;5.282;2023-09-30T15:04:25;5.13;;;3.20;;
27666;SDS011;15074;50.940;5.282;2023-09-30T15:06:51;6.05;;;3.65;;
27666;SDS011;15074;50.940;5.282;2023-09-30T15:09:16;4.55;;;3.60;;
27666;SDS011;15074;50.940;5.282;2023-09-30T15:11:43;4.65;;;3.50;;
27666;SDS011;15074;50.940;5.282;2023-09-30T15:14:08;5.55;;;3.50;;
27666;SDS011;15074;50.940;5.282;2023-09-30T15:16:34;4.95;;;3.85;;